sensor_id;sensor_type;location;lat;lon;timestamp;P1;durP1;ratioP1;P2;durP2;ratioP2
68976;SDS011;56029;52.568;13.588;2022-09-30T00:00:25;17.80;;;10.35;;
68976;SDS011;56029;52.568;13.588;2022-09-30T00:03:10;18.00;;;10.48;;
68976;SDS011;56029;52.568;13.588;2022-09-30T00:05:36;16.97;;;9.40;;
68976;SDS011;56029;52.568;13.588;2022-09-30T00:08:01;17.67;;;10.05;;
68976;SDS011;56029;52.568;13.588;2022-09-30T00:10:27;17.60;;;9.50;;
68976;SDS011;56029;52.568;13.588;2022-09-30T00:12:52;16.63;;;9.93;;
68976;SDS011;56029;52.568;13.588;2022-09-30T00:15:18;17.13;;;9.13;;
68976;SDS011;56029;52.568;13.588;2022-09-30T00:17:44;17.30;;;9.97;;
68976;SDS011;56029;52.568;13.588;2022-09-30T00:20:10;16.27;;;9.25;;
68976;SDS011;56029;52.568;13.588;2022-09-30T00:22:35;16.87;;;9.50;;
68976;SDS011;56029;52.568;13.588;2022-09-30T00:25:01;15.20;;;8.97;;
68976;SDS011;56029;52.568;13.588;2022-09-30T00:27:27;16.45;;;8.57;;
68976;SDS011;56029;52.568;13.588;2022-09-30T00:29:53;15.80;;;9.23;;
68976;SDS011;56029;52.568;13.588;2022-09-30T00:32:18;15.80;;;9.00;;
68976;SDS011;56029;52.568;13.588;2022-09-30T00:34:44;18.77;;;9.43;;
68976;SDS011;56029;52.568;13.588;2022-09-30T00:37:09;14.90;;;8.50;;
68976;SDS011;56029;52.568;13.588;2022-09-30T00:39:39;18.23;;;9.77;;
68976;SDS011;56029;52.568;13.588;2022-09-30T00:42:06;15.80;;;9.05;;
68976;SDS011;56029;52.568;13.588;2022-09-30T00:47:29;18.08;;;9.27;;
68976;SDS011;56029;52.568;13.588;2022-09-30T00:50:04;17.17;;;8.90;;
68976;SDS011;56029;52.568;13.588;2022-09-30T00:52:37;14.68;;;9.07;;
68976;SDS011;56029;52.568;13.588;2022-09-30T00:55:05;15.73;;;9.27;;
68976;SDS011;56029;52.568;13.588;2022-09-30T00:57:34;17.23;;;9.48;;
68976;SDS011;56029;52.568;13.588;2022-09-30T01:00:00;17.07;;;9.50;;
68976;SDS011;56029;52.568;13.588;2022-09-30T01:02:26;14.65;;;8.82;;
68976;SDS011;56029;52.568;13.588;2022-09-30T01:04:51;15.85;;;9.07;;
68976;SDS011;56029;52.568;13.588;2022-09-30T01:07:19;16.03;;;8.70;;
68976;SDS011;56029;52.568;13.588;2022-09-30T01:09:46;15.82;;;8.93;;
68976;SDS011;56029;52.568;13.588;2022-09-30T01:12:14;15.48;;;8.20;;
68976;SDS011;56029;52.568;13.588;2022-09-30T01:14:45;15.75;;;8.40;;
68976;SDS011;56029;52.568;13.588;2022-09-30T01:17:17;16.08;;;8.60;;
68976;SDS011;56029;52.568;13.588;2022-09-30T01:25:41;14.88;;;8.60;;
68976;SDS011;56029;52.568;13.588;2022-09-30T01:28:43;14.32;;;8.25;;
68976;SDS011;56029;52.568;13.588;2022-09-30T01:32:19;14.43;;;8.57;;
68976;SDS011;56029;52.568;13.588;2022-09-30T01:40:11;15.52;;;8.57;;
68976;SDS011;56029;52.568;13.588;2022-09-30T01:42:52;16.67;;;9.40;;
68976;SDS011;56029;52.568;13.588;2022-09-30T01:45:43;16.25;;;9.20;;
68976;SDS011;56029;52.568;13.588;2022-09-30T01:48:39;17.03;;;9.13;;
68976;SDS011;56029;52.568;13.588;2022-09-30T01:51:34;15.85;;;9.07;;
68976;SDS011;56029;52.568;13.588;2022-09-30T01:54:11;16.25;;;9.32;;
68976;SDS011;56029;52.568;13.588;2022-09-30T01:56:51;16.42;;;8.95;;
68976;SDS011;56029;52.568;13.588;2022-09-30T01:59:36;18.08;;;9.23;;
68976;SDS011;56029;52.568;13.588;2022-09-30T02:02:20;15.43;;;9.03;;
68976;SDS011;56029;52.568;13.588;2022-09-30T02:04:57;14.48;;;8.15;;
68976;SDS011;56029;52.568;13.588;2022-09-30T02:07:30;14.27;;;8.05;;
68976;SDS011;56029;52.568;13.588;2022-09-30T02:10:08;14.40;;;7.97;;
68976;SDS011;56029;52.568;13.588;2022-09-30T02:12:41;13.80;;;7.68;;
68976;SDS011;56029;52.568;13.588;2022-09-30T02:15:14;14.27;;;8.10;;
68976;SDS011;56029;52.568;13.588;2022-09-30T02:17:55;14.57;;;7.53;;
68976;SDS011;56029;52.568;13.588;2022-09-30T02:20:30;14.30;;;8.50;;
68976;SDS011;56029;52.568;13.588;2022-09-30T02:23:04;14.55;;;8.48;;
68976;SDS011;56029;52.568;13.588;2022-09-30T02:25:58;15.30;;;8.55;;
68976;SDS011;56029;52.568;13.588;2022-09-30T02:28:43;13.53;;;7.30;;
68976;SDS011;56029;52.568;13.588;2022-09-30T02:31:13;13.70;;;7.40;;
68976;SDS011;56029;52.568;13.588;2022-09-30T02:33:52;12.38;;;7.20;;
68976;SDS011;56029;52.568;13.588;2022-09-30T02:36:24;13.68;;;7.50;;
68976;SDS011;56029;52.568;13.588;2022-09-30T02:38:54;13.27;;;7.80;;
68976;SDS011;56029;52.568;13.588;2022-09-30T02:41:27;12.73;;;7.43;;
68976;SDS011;56029;52.568;13.588;2022-09-30T02:43:56;12.93;;;7.40;;
68976;SDS011;56029;52.568;13.588;2022-09-30T02:46:39;14.30;;;7.72;;
68976;SDS011;56029;52.568;13.588;2022-09-30T03:00:14;15.48;;;7.43;;
68976;SDS011;56029;52.568;13.588;2022-09-30T03:02:40;13.38;;;7.18;;
68976;SDS011;56029;52.568;13.588;2022-09-30T03:05:07;11.53;;;7.20;;
68976;SDS011;56029;52.568;13.588;2022-09-30T03:07:34;13.05;;;7.22;;
68976;SDS011;56029;52.568;13.588;2022-09-30T03:10:00;13.63;;;7.00;;
68976;SDS011;56029;52.568;13.588;2022-09-30T03:17:54;12.93;;;7.07;;
68976;SDS011;56029;52.568;13.588;2022-09-30T03:23:01;12.80;;;7.30;;
68976;SDS011;56029;52.568;13.588;2022-09-30T03:28:18;13.98;;;7.53;;
68976;SDS011;56029;52.568;13.588;2022-09-30T03:31:11;13.23;;;6.93;;
68976;SDS011;56029;52.568;13.588;2022-09-30T03:34:02;13.75;;;7.53;;
68976;SDS011;56029;52.568;13.588;2022-09-30T03:42:13;14.23;;;7.93;;
68976;SDS011;56029;52.568;13.588;2022-09-30T03:45:05;15.53;;;8.33;;
68976;SDS011;56029;52.568;13.588;2022-09-30T03:47:36;14.95;;;8.10;;
68976;SDS011;56029;52.568;13.588;2022-09-30T03:50:11;15.98;;;8.25;;
68976;SDS011;56029;52.568;13.588;2022-09-30T03:52:39;14.43;;;7.93;;
68976;SDS011;56029;52.568;13.588;2022-09-30T03:55:05;15.87;;;8.03;;
68976;SDS011;56029;52.568;13.588;2022-09-30T03:57:32;19.30;;;8.23;;
68976;SDS011;56029;52.568;13.588;2022-09-30T03:59:58;13.33;;;7.73;;
68976;SDS011;56029;52.568;13.588;2022-09-30T04:02:24;15.70;;;8.07;;
68976;SDS011;56029;52.568;13.588;2022-09-30T04:04:51;14.48;;;8.00;;
68976;SDS011;56029;52.568;13.588;2022-09-30T04:07:17;14.27;;;7.55;;
68976;SDS011;56029;52.568;13.588;2022-09-30T04:09:43;15.10;;;7.43;;
68976;SDS011;56029;52.568;13.588;2022-09-30T04:12:08;14.97;;;8.33;;
68976;SDS011;56029;52.568;13.588;2022-09-30T04:14:34;16.77;;;8.23;;
68976;SDS011;56029;52.568;13.588;2022-09-30T04:17:00;15.70;;;8.43;;
68976;SDS011;56029;52.568;13.588;2022-09-30T04:19:26;14.30;;;7.50;;
68976;SDS011;56029;52.568;13.588;2022-09-30T04:21:52;14.20;;;7.90;;
68976;SDS011;56029;52.568;13.588;2022-09-30T04:24:20;15.95;;;8.20;;
68976;SDS011;56029;52.568;13.588;2022-09-30T04:26:46;17.02;;;7.78;;
68976;SDS011;56029;52.568;13.588;2022-09-30T04:29:12;14.05;;;8.02;;
68976;SDS011;56029;52.568;13.588;2022-09-30T04:31:38;15.30;;;7.73;;
68976;SDS011;56029;52.568;13.588;2022-09-30T04:34:03;14.83;;;7.80;;
68976;SDS011;56029;52.568;13.588;2022-09-30T04:36:29;15.00;;;8.20;;
68976;SDS011;56029;52.568;13.588;2022-09-30T04:38:55;14.40;;;7.90;;
68976;SDS011;56029;52.568;13.588;2022-09-30T04:41:20;14.30;;;8.07;;
68976;SDS011;56029;52.568;13.588;2022-09-30T04:43:46;13.83;;;7.60;;
68976;SDS011;56029;52.568;13.588;2022-09-30T04:46:12;13.25;;;7.55;;
68976;SDS011;56029;52.568;13.588;2022-09-30T04:48:39;14.82;;;7.90;;
68976;SDS011;56029;52.568;13.588;2022-09-30T04:51:05;14.77;;;7.40;;
68976;SDS011;56029;52.568;13.588;2022-09-30T04:53:30;13.60;;;7.27;;
68976;SDS011;56029;52.568;13.588;2022-09-30T04:55:57;13.57;;;7.18;;
68976;SDS011;56029;52.568;13.588;2022-09-30T04:58:24;14.25;;;7.50;;
68976;SDS011;56029;52.568;13.588;2022-09-30T05:00:50;15.87;;;7.40;;
68976;SDS011;56029;52.568;13.588;2022-09-30T05:03:16;14.50;;;7.45;;
68976;SDS011;56029;52.568;13.588;2022-09-30T05:05:42;13.73;;;7.78;;
68976;SDS011;56029;52.568;13.588;2022-09-30T05:08:08;15.87;;;7.90;;
68976;SDS011;56029;52.568;13.588;2022-09-30T05:10:34;13.43;;;7.73;;
68976;SDS011;56029;52.568;13.588;2022-09-30T05:12:59;13.40;;;7.60;;
68976;SDS011;56029;52.568;13.588;2022-09-30T05:15:25;15.17;;;8.10;;
68976;SDS011;56029;52.568;13.588;2022-09-30T05:17:51;14.27;;;7.32;;
68976;SDS011;56029;52.568;13.588;2022-09-30T05:20:17;17.02;;;8.38;;
68976;SDS011;56029;52.568;13.588;2022-09-30T05:22:43;15.27;;;8.20;;
68976;SDS011;56029;52.568;13.588;2022-09-30T05:25:09;37.73;;;18.47;;
68976;SDS011;56029;52.568;13.588;2022-09-30T05:27:35;35.53;;;16.95;;
68976;SDS011;56029;52.568;13.588;2022-09-30T05:30:00;26.63;;;13.50;;
68976;SDS011;56029;52.568;13.588;2022-09-30T05:32:26;20.53;;;10.10;;
68976;SDS011;56029;52.568;13.588;2022-09-30T05:34:51;16.50;;;8.90;;
68976;SDS011;56029;52.568;13.588;2022-09-30T05:37:19;15.47;;;8.07;;
68976;SDS011;56029;52.568;13.588;2022-09-30T05:39:44;17.13;;;8.10;;
68976;SDS011;56029;52.568;13.588;2022-09-30T05:42:10;14.47;;;7.83;;
68976;SDS011;56029;52.568;13.588;2022-09-30T05:44:36;14.30;;;7.87;;
68976;SDS011;56029;52.568;13.588;2022-09-30T05:47:01;14.27;;;7.68;;
68976;SDS011;56029;52.568;13.588;2022-09-30T05:49:27;15.40;;;8.10;;
68976;SDS011;56029;52.568;13.588;2022-09-30T05:51:52;16.00;;;8.17;;
68976;SDS011;56029;52.568;13.588;2022-09-30T05:54:17;16.10;;;8.50;;
68976;SDS011;56029;52.568;13.588;2022-09-30T05:56:43;16.85;;;8.63;;
68976;SDS011;56029;52.568;13.588;2022-09-30T05:59:09;15.37;;;8.27;;
68976;SDS011;56029;52.568;13.588;2022-09-30T06:01:34;16.13;;;8.77;;
68976;SDS011;56029;52.568;13.588;2022-09-30T06:04:01;16.50;;;9.02;;
68976;SDS011;56029;52.568;13.588;2022-09-30T06:06:26;14.73;;;8.47;;
68976;SDS011;56029;52.568;13.588;2022-09-30T06:08:52;17.10;;;8.90;;
68976;SDS011;56029;52.568;13.588;2022-09-30T06:11:19;16.13;;;9.10;;
68976;SDS011;56029;52.568;13.588;2022-09-30T06:13:47;15.85;;;8.80;;
68976;SDS011;56029;52.568;13.588;2022-09-30T06:16:14;21.48;;;11.77;;
68976;SDS011;56029;52.568;13.588;2022-09-30T06:18:40;21.77;;;11.45;;
68976;SDS011;56029;52.568;13.588;2022-09-30T06:21:07;20.87;;;11.13;;
68976;SDS011;56029;52.568;13.588;2022-09-30T06:23:35;22.17;;;11.18;;
68976;SDS011;56029;52.568;13.588;2022-09-30T06:26:02;23.30;;;11.50;;
68976;SDS011;56029;52.568;13.588;2022-09-30T06:28:29;20.95;;;11.25;;
68976;SDS011;56029;52.568;13.588;2022-09-30T06:30:54;22.50;;;11.95;;
68976;SDS011;56029;52.568;13.588;2022-09-30T06:33:20;24.30;;;12.07;;
68976;SDS011;56029;52.568;13.588;2022-09-30T06:35:46;24.42;;;11.75;;
68976;SDS011;56029;52.568;13.588;2022-09-30T06:38:15;22.73;;;11.23;;
68976;SDS011;56029;52.568;13.588;2022-09-30T06:40:41;20.98;;;11.07;;
68976;SDS011;56029;52.568;13.588;2022-09-30T06:43:08;22.73;;;11.68;;
68976;SDS011;56029;52.568;13.588;2022-09-30T06:45:35;24.08;;;11.65;;
68976;SDS011;56029;52.568;13.588;2022-09-30T06:48:02;23.65;;;12.30;;
68976;SDS011;56029;52.568;13.588;2022-09-30T06:50:29;23.37;;;12.37;;
68976;SDS011;56029;52.568;13.588;2022-09-30T06:52:57;24.52;;;12.25;;
68976;SDS011;56029;52.568;13.588;2022-09-30T06:55:27;23.75;;;12.20;;
68976;SDS011;56029;52.568;13.588;2022-09-30T06:57:54;25.98;;;13.43;;
68976;SDS011;56029;52.568;13.588;2022-09-30T07:00:20;23.38;;;12.68;;
68976;SDS011;56029;52.568;13.588;2022-09-30T07:02:47;23.47;;;12.10;;
68976;SDS011;56029;52.568;13.588;2022-09-30T07:05:13;24.80;;;13.20;;
68976;SDS011;56029;52.568;13.588;2022-09-30T07:07:40;23.00;;;12.88;;
68976;SDS011;56029;52.568;13.588;2022-09-30T07:10:06;26.40;;;13.68;;
68976;SDS011;56029;52.568;13.588;2022-09-30T07:12:32;25.50;;;13.43;;
68976;SDS011;56029;52.568;13.588;2022-09-30T07:14:58;23.67;;;12.90;;
68976;SDS011;56029;52.568;13.588;2022-09-30T07:17:27;22.05;;;12.52;;
68976;SDS011;56029;52.568;13.588;2022-09-30T07:19:53;22.77;;;13.15;;
68976;SDS011;56029;52.568;13.588;2022-09-30T07:22:19;24.77;;;13.60;;
68976;SDS011;56029;52.568;13.588;2022-09-30T07:24:52;24.23;;;13.65;;
68976;SDS011;56029;52.568;13.588;2022-09-30T07:27:18;25.35;;;13.15;;
68976;SDS011;56029;52.568;13.588;2022-09-30T07:29:43;24.00;;;12.80;;
68976;SDS011;56029;52.568;13.588;2022-09-30T07:32:10;24.23;;;13.00;;
68976;SDS011;56029;52.568;13.588;2022-09-30T07:34:36;21.52;;;12.85;;
68976;SDS011;56029;52.568;13.588;2022-09-30T07:37:03;23.75;;;13.10;;
68976;SDS011;56029;52.568;13.588;2022-09-30T07:39:28;20.87;;;12.70;;
68976;SDS011;56029;52.568;13.588;2022-09-30T07:41:55;21.17;;;12.50;;
68976;SDS011;56029;52.568;13.588;2022-09-30T07:44:20;21.07;;;12.50;;
68976;SDS011;56029;52.568;13.588;2022-09-30T07:46:46;22.00;;;12.82;;
68976;SDS011;56029;52.568;13.588;2022-09-30T07:49:13;21.07;;;12.03;;
68976;SDS011;56029;52.568;13.588;2022-09-30T07:51:48;21.85;;;12.88;;
68976;SDS011;56029;52.568;13.588;2022-09-30T07:54:15;21.33;;;12.40;;
68976;SDS011;56029;52.568;13.588;2022-09-30T07:56:43;22.73;;;12.48;;
68976;SDS011;56029;52.568;13.588;2022-09-30T07:59:10;22.20;;;12.80;;
68976;SDS011;56029;52.568;13.588;2022-09-30T08:01:37;22.35;;;12.70;;
68976;SDS011;56029;52.568;13.588;2022-09-30T08:04:04;21.73;;;12.10;;
68976;SDS011;56029;52.568;13.588;2022-09-30T08:06:31;21.98;;;12.32;;
68976;SDS011;56029;52.568;13.588;2022-09-30T08:09:00;20.97;;;11.70;;
68976;SDS011;56029;52.568;13.588;2022-09-30T08:11:26;18.95;;;11.30;;
68976;SDS011;56029;52.568;13.588;2022-09-30T08:13:52;20.43;;;11.67;;
68976;SDS011;56029;52.568;13.588;2022-09-30T08:16:19;19.95;;;11.65;;
68976;SDS011;56029;52.568;13.588;2022-09-30T08:18:46;20.35;;;11.15;;
68976;SDS011;56029;52.568;13.588;2022-09-30T08:21:11;17.70;;;10.50;;
68976;SDS011;56029;52.568;13.588;2022-09-30T08:23:38;17.47;;;10.73;;
68976;SDS011;56029;52.568;13.588;2022-09-30T08:26:04;19.15;;;10.73;;
68976;SDS011;56029;52.568;13.588;2022-09-30T08:28:34;17.17;;;10.47;;
68976;SDS011;56029;52.568;13.588;2022-09-30T08:31:02;16.30;;;9.48;;
68976;SDS011;56029;52.568;13.588;2022-09-30T08:33:34;17.40;;;9.93;;
68976;SDS011;56029;52.568;13.588;2022-09-30T08:36:01;17.95;;;10.10;;
68976;SDS011;56029;52.568;13.588;2022-09-30T08:38:34;15.80;;;8.80;;
68976;SDS011;56029;52.568;13.588;2022-09-30T08:41:03;17.30;;;9.32;;
68976;SDS011;56029;52.568;13.588;2022-09-30T08:46:34;18.00;;;9.10;;
68976;SDS011;56029;52.568;13.588;2022-09-30T08:49:21;17.52;;;9.48;;
68976;SDS011;56029;52.568;13.588;2022-09-30T08:51:50;14.93;;;8.77;;
68976;SDS011;56029;52.568;13.588;2022-09-30T08:54:18;16.00;;;8.68;;
68976;SDS011;56029;52.568;13.588;2022-09-30T08:56:48;14.80;;;8.25;;
68976;SDS011;56029;52.568;13.588;2022-09-30T08:59:19;14.67;;;8.47;;
68976;SDS011;56029;52.568;13.588;2022-09-30T09:02:26;14.23;;;7.90;;
68976;SDS011;56029;52.568;13.588;2022-09-30T09:04:57;14.87;;;7.50;;
68976;SDS011;56029;52.568;13.588;2022-09-30T09:07:39;14.60;;;8.18;;
68976;SDS011;56029;52.568;13.588;2022-09-30T09:13:08;13.48;;;7.97;;
68976;SDS011;56029;52.568;13.588;2022-09-30T09:15:58;12.98;;;7.70;;
68976;SDS011;56029;52.568;13.588;2022-09-30T09:21:50;12.07;;;6.95;;
68976;SDS011;56029;52.568;13.588;2022-09-30T09:27:11;10.57;;;6.13;;
68976;SDS011;56029;52.568;13.588;2022-09-30T09:29:48;10.32;;;6.10;;
68976;SDS011;56029;52.568;13.588;2022-09-30T09:32:23;9.90;;;6.00;;
68976;SDS011;56029;52.568;13.588;2022-09-30T09:34:51;10.80;;;5.90;;
68976;SDS011;56029;52.568;13.588;2022-09-30T09:37:31;9.00;;;5.63;;
68976;SDS011;56029;52.568;13.588;2022-09-30T09:40:25;10.18;;;6.00;;
68976;SDS011;56029;52.568;13.588;2022-09-30T09:43:06;9.95;;;5.60;;
68976;SDS011;56029;52.568;13.588;2022-09-30T09:45:40;9.70;;;5.47;;
68976;SDS011;56029;52.568;13.588;2022-09-30T09:48:15;9.10;;;5.15;;
68976;SDS011;56029;52.568;13.588;2022-09-30T09:53:14;9.33;;;5.50;;
68976;SDS011;56029;52.568;13.588;2022-09-30T09:55:59;9.00;;;5.25;;
68976;SDS011;56029;52.568;13.588;2022-09-30T09:58:27;8.95;;;4.93;;
68976;SDS011;56029;52.568;13.588;2022-09-30T10:00:52;7.83;;;4.70;;
68976;SDS011;56029;52.568;13.588;2022-09-30T10:03:49;8.93;;;5.27;;
68976;SDS011;56029;52.568;13.588;2022-09-30T10:06:44;9.10;;;4.90;;
68976;SDS011;56029;52.568;13.588;2022-09-30T10:09:20;8.98;;;5.30;;
68976;SDS011;56029;52.568;13.588;2022-09-30T10:12:36;8.32;;;4.65;;
68976;SDS011;56029;52.568;13.588;2022-09-30T10:14:40;9.88;;;4.72;;
68976;SDS011;56029;52.568;13.588;2022-09-30T10:17:21;7.77;;;4.27;;
68976;SDS011;56029;52.568;13.588;2022-09-30T10:19:54;9.60;;;4.70;;
68976;SDS011;56029;52.568;13.588;2022-09-30T10:22:28;8.63;;;4.80;;
68976;SDS011;56029;52.568;13.588;2022-09-30T10:25:09;9.20;;;4.30;;
68976;SDS011;56029;52.568;13.588;2022-09-30T10:27:55;9.02;;;4.75;;
68976;SDS011;56029;52.568;13.588;2022-09-30T10:30:33;9.37;;;5.33;;
68976;SDS011;56029;52.568;13.588;2022-09-30T10:33:03;9.10;;;5.00;;
68976;SDS011;56029;52.568;13.588;2022-09-30T10:35:47;9.07;;;5.18;;
68976;SDS011;56029;52.568;13.588;2022-09-30T10:38:19;9.68;;;5.55;;
68976;SDS011;56029;52.568;13.588;2022-09-30T10:40:47;8.85;;;4.80;;
68976;SDS011;56029;52.568;13.588;2022-09-30T10:43:36;9.47;;;5.53;;
68976;SDS011;56029;52.568;13.588;2022-09-30T10:46:07;8.88;;;5.15;;
68976;SDS011;56029;52.568;13.588;2022-09-30T10:48:34;9.65;;;5.63;;
68976;SDS011;56029;52.568;13.588;2022-09-30T10:51:01;9.60;;;5.70;;
68976;SDS011;56029;52.568;13.588;2022-09-30T10:53:28;10.25;;;5.97;;
68976;SDS011;56029;52.568;13.588;2022-09-30T10:55:58;10.87;;;5.37;;
68976;SDS011;56029;52.568;13.588;2022-09-30T11:01:14;9.82;;;5.50;;
68976;SDS011;56029;52.568;13.588;2022-09-30T11:03:51;9.45;;;5.53;;
68976;SDS011;56029;52.568;13.588;2022-09-30T11:06:31;8.55;;;4.78;;
68976;SDS011;56029;52.568;13.588;2022-09-30T11:11:49;8.30;;;4.57;;
68976;SDS011;56029;52.568;13.588;2022-09-30T11:14:29;8.48;;;4.78;;
68976;SDS011;56029;52.568;13.588;2022-09-30T11:22:54;7.80;;;4.73;;
68976;SDS011;56029;52.568;13.588;2022-09-30T11:25:23;8.30;;;4.95;;
68976;SDS011;56029;52.568;13.588;2022-09-30T11:28:04;8.75;;;4.30;;
68976;SDS011;56029;52.568;13.588;2022-09-30T11:30:55;8.00;;;4.60;;
68976;SDS011;56029;52.568;13.588;2022-09-30T11:33:36;8.43;;;4.35;;
68976;SDS011;56029;52.568;13.588;2022-09-30T11:41:50;8.10;;;4.43;;
68976;SDS011;56029;52.568;13.588;2022-09-30T11:44:33;8.40;;;4.18;;
68976;SDS011;56029;52.568;13.588;2022-09-30T11:55:09;7.55;;;3.63;;
68976;SDS011;56029;52.568;13.588;2022-09-30T12:00:24;8.52;;;4.00;;
68976;SDS011;56029;52.568;13.588;2022-09-30T12:02:50;6.80;;;4.13;;
68976;SDS011;56029;52.568;13.588;2022-09-30T12:11:09;6.63;;;4.00;;
68976;SDS011;56029;52.568;13.588;2022-09-30T12:13:42;6.67;;;3.60;;
68976;SDS011;56029;52.568;13.588;2022-09-30T12:16:15;6.30;;;3.38;;
68976;SDS011;56029;52.568;13.588;2022-09-30T12:18:46;7.43;;;4.10;;
68976;SDS011;56029;52.568;13.588;2022-09-30T12:27:00;6.70;;;3.83;;
68976;SDS011;56029;52.568;13.588;2022-09-30T12:29:32;7.20;;;4.00;;
68976;SDS011;56029;52.568;13.588;2022-09-30T12:32:45;8.52;;;4.18;;
68976;SDS011;56029;52.568;13.588;2022-09-30T12:38:23;6.88;;;3.70;;
68976;SDS011;56029;52.568;13.588;2022-09-30T12:49:31;7.30;;;3.90;;
68976;SDS011;56029;52.568;13.588;2022-09-30T12:52:04;6.35;;;3.83;;
68976;SDS011;56029;52.568;13.588;2022-09-30T12:54:39;6.87;;;4.30;;
68976;SDS011;56029;52.568;13.588;2022-09-30T12:57:08;6.53;;;3.75;;
68976;SDS011;56029;52.568;13.588;2022-09-30T12:59:45;7.25;;;4.15;;
68976;SDS011;56029;52.568;13.588;2022-09-30T13:02:27;7.43;;;4.13;;
68976;SDS011;56029;52.568;13.588;2022-09-30T13:05:27;7.50;;;4.45;;
68976;SDS011;56029;52.568;13.588;2022-09-30T13:08:42;7.00;;;4.00;;
68976;SDS011;56029;52.568;13.588;2022-09-30T13:10:45;7.07;;;4.03;;
68976;SDS011;56029;52.568;13.588;2022-09-30T13:13:20;7.38;;;4.75;;
68976;SDS011;56029;52.568;13.588;2022-09-30T13:15:48;7.38;;;4.85;;
68976;SDS011;56029;52.568;13.588;2022-09-30T13:21:12;7.73;;;4.90;;
68976;SDS011;56029;52.568;13.588;2022-09-30T13:23:49;5.97;;;3.33;;
68976;SDS011;56029;52.568;13.588;2022-09-30T13:32:00;5.82;;;3.30;;
68976;SDS011;56029;52.568;13.588;2022-09-30T13:34:24;6.73;;;3.33;;
68976;SDS011;56029;52.568;13.588;2022-09-30T13:37:02;5.38;;;3.20;;
68976;SDS011;56029;52.568;13.588;2022-09-30T13:42:16;6.70;;;3.22;;
68976;SDS011;56029;52.568;13.588;2022-09-30T13:47:46;4.00;;;2.70;;
68976;SDS011;56029;52.568;13.588;2022-09-30T13:50:32;6.15;;;3.10;;
68976;SDS011;56029;52.568;13.588;2022-09-30T13:53:05;4.68;;;2.80;;
68976;SDS011;56029;52.568;13.588;2022-09-30T13:55:38;4.57;;;2.95;;
68976;SDS011;56029;52.568;13.588;2022-09-30T14:00:53;5.93;;;3.00;;
68976;SDS011;56029;52.568;13.588;2022-09-30T14:03:43;5.40;;;3.15;;
68976;SDS011;56029;52.568;13.588;2022-09-30T14:06:29;5.03;;;2.90;;
68976;SDS011;56029;52.568;13.588;2022-09-30T14:09:13;5.35;;;2.88;;
68976;SDS011;56029;52.568;13.588;2022-09-30T14:11:56;4.78;;;2.90;;
68976;SDS011;56029;52.568;13.588;2022-09-30T14:17:19;5.22;;;2.70;;
68976;SDS011;56029;52.568;13.588;2022-09-30T14:23:12;3.45;;;2.50;;
68976;SDS011;56029;52.568;13.588;2022-09-30T14:25:41;3.90;;;2.70;;
68976;SDS011;56029;52.568;13.588;2022-09-30T14:28:31;4.70;;;2.80;;
68976;SDS011;56029;52.568;13.588;2022-09-30T14:31:04;5.57;;;2.70;;
68976;SDS011;56029;52.568;13.588;2022-09-30T14:33:33;4.45;;;2.70;;
68976;SDS011;56029;52.568;13.588;2022-09-30T14:36:04;5.43;;;2.83;;
68976;SDS011;56029;52.568;13.588;2022-09-30T14:38:37;3.47;;;2.47;;
68976;SDS011;56029;52.568;13.588;2022-09-30T14:41:04;2.93;;;2.07;;
68976;SDS011;56029;52.568;13.588;2022-09-30T14:43:36;4.50;;;2.33;;
68976;SDS011;56029;52.568;13.588;2022-09-30T14:46:21;4.15;;;2.55;;
68976;SDS011;56029;52.568;13.588;2022-09-30T14:48:55;3.60;;;2.10;;
68976;SDS011;56029;52.568;13.588;2022-09-30T14:51:26;3.05;;;2.10;;
68976;SDS011;56029;52.568;13.588;2022-09-30T14:53:59;3.83;;;2.40;;
68976;SDS011;56029;52.568;13.588;2022-09-30T14:56:30;4.10;;;2.25;;
68976;SDS011;56029;52.568;13.588;2022-09-30T14:58:57;5.65;;;2.22;;
68976;SDS011;56029;52.568;13.588;2022-09-30T15:01:24;3.70;;;2.20;;
68976;SDS011;56029;52.568;13.588;2022-09-30T15:03:59;2.95;;;2.00;;
68976;SDS011;56029;52.568;13.588;2022-09-30T15:06:30;5.23;;;2.30;;
68976;SDS011;56029;52.568;13.588;2022-09-30T15:09:02;3.08;;;2.20;;
68976;SDS011;56029;52.568;13.588;2022-09-30T15:11:33;3.45;;;2.03;;
68976;SDS011;56029;52.568;13.588;2022-09-30T15:14:01;4.10;;;2.28;;
68976;SDS011;56029;52.568;13.588;2022-09-30T15:16:29;3.83;;;2.30;;
68976;SDS011;56029;52.568;13.588;2022-09-30T15:18:56;3.77;;;2.30;;
68976;SDS011;56029;52.568;13.588;2022-09-30T15:21:23;3.50;;;2.30;;
68976;SDS011;56029;52.568;13.588;2022-09-30T15:23:51;4.47;;;2.30;;
68976;SDS011;56029;52.568;13.588;2022-09-30T15:26:20;3.70;;;2.20;;
68976;SDS011;56029;52.568;13.588;2022-09-30T15:28:48;4.00;;;2.33;;
68976;SDS011;56029;52.568;13.588;2022-09-30T15:31:22;4.07;;;2.40;;
68976;SDS011;56029;52.568;13.588;2022-09-30T15:34:02;4.53;;;2.50;;
68976;SDS011;56029;52.568;13.588;2022-09-30T15:36:29;4.93;;;2.50;;
68976;SDS011;56029;52.568;13.588;2022-09-30T15:38:55;4.90;;;2.50;;
68976;SDS011;56029;52.568;13.588;2022-09-30T15:41:21;5.18;;;2.53;;
68976;SDS011;56029;52.568;13.588;2022-09-30T15:43:47;4.90;;;2.60;;
68976;SDS011;56029;52.568;13.588;2022-09-30T15:46:25;5.28;;;2.92;;
68976;SDS011;56029;52.568;13.588;2022-09-30T15:48:57;5.13;;;2.90;;
68976;SDS011;56029;52.568;13.588;2022-09-30T15:51:34;6.80;;;2.77;;
68976;SDS011;56029;52.568;13.588;2022-09-30T15:56:39;4.45;;;3.13;;
68976;SDS011;56029;52.568;13.588;2022-09-30T15:59:07;5.13;;;3.00;;
68976;SDS011;56029;52.568;13.588;2022-09-30T16:01:40;4.55;;;3.00;;
68976;SDS011;56029;52.568;13.588;2022-09-30T16:09:06;5.67;;;3.20;;
68976;SDS011;56029;52.568;13.588;2022-09-30T16:11:44;4.50;;;2.97;;
68976;SDS011;56029;52.568;13.588;2022-09-30T16:14:19;5.57;;;3.40;;
68976;SDS011;56029;52.568;13.588;2022-09-30T16:16:48;5.30;;;3.33;;
68976;SDS011;56029;52.568;13.588;2022-09-30T16:19:17;5.10;;;3.50;;
68976;SDS011;56029;52.568;13.588;2022-09-30T16:26:58;6.37;;;3.70;;
68976;SDS011;56029;52.568;13.588;2022-09-30T16:29:40;5.82;;;4.00;;
68976;SDS011;56029;52.568;13.588;2022-09-30T16:32:07;6.63;;;4.00;;
68976;SDS011;56029;52.568;13.588;2022-09-30T16:34:34;7.88;;;5.05;;
68976;SDS011;56029;52.568;13.588;2022-09-30T16:37:19;9.02;;;5.50;;
68976;SDS011;56029;52.568;13.588;2022-09-30T16:39:45;7.80;;;5.03;;
68976;SDS011;56029;52.568;13.588;2022-09-30T16:42:12;7.90;;;4.82;;
68976;SDS011;56029;52.568;13.588;2022-09-30T16:44:38;7.43;;;4.47;;
68976;SDS011;56029;52.568;13.588;2022-09-30T16:47:06;7.20;;;4.90;;
68976;SDS011;56029;52.568;13.588;2022-09-30T16:49:32;7.70;;;4.78;;
68976;SDS011;56029;52.568;13.588;2022-09-30T16:51:58;7.50;;;4.40;;
68976;SDS011;56029;52.568;13.588;2022-09-30T16:54:24;7.90;;;4.70;;
68976;SDS011;56029;52.568;13.588;2022-09-30T16:56:50;7.40;;;4.50;;
68976;SDS011;56029;52.568;13.588;2022-09-30T16:59:16;7.50;;;4.60;;
68976;SDS011;56029;52.568;13.588;2022-09-30T17:01:42;9.18;;;5.20;;
68976;SDS011;56029;52.568;13.588;2022-09-30T17:04:08;11.07;;;6.23;;
68976;SDS011;56029;52.568;13.588;2022-09-30T17:06:34;12.55;;;7.22;;
68976;SDS011;56029;52.568;13.588;2022-09-30T17:09:01;13.13;;;7.95;;
68976;SDS011;56029;52.568;13.588;2022-09-30T17:11:28;12.05;;;7.35;;